createdAt,value
2023-04-14T00:00:11.216Z,97806.78
2023-04-14T00:01:17.672Z,97803.59
2023-04-14T00:02:20.015Z,97805.19
2023-04-14T00:03:22.439Z,97805.50
2023-04-14T00:04:24.785Z,97808.97
2023-04-14T00:05:31.283Z,97811.66
2023-04-14T00:06:33.259Z,97805.78
2023-04-14T00:07:35.298Z,97808.47
2023-04-14T00:08:37.473Z,97809.56
2023-04-14T00:09:39.464Z,97809.56
2023-04-14T00:10:41.793Z,97812.25
2023-04-14T00:11:45.130Z,97814.16
2023-04-14T00:12:47.464Z,97802.59
2023-04-14T00:13:50.904Z,97808.47
2023-04-14T00:14:53.641Z,97802.59
2023-04-14T00:15:56.327Z,97801.50
2023-04-14T00:16:58.344Z,97800.72
2023-04-14T00:18:01.375Z,97804.78
2023-04-14T00:19:03.646Z,97790.25
2023-04-14T00:20:07.183Z,97804.78
2023-04-14T00:21:09.175Z,97799.41
2023-04-14T00:22:11.317Z,97797.00
2023-04-14T00:23:14.660Z,97800.47
2023-04-14T00:24:16.528Z,97795.91
2023-04-14T00:25:18.932Z,97789.22
2023-04-14T00:26:21.488Z,97793.50
2023-04-14T00:27:23.401Z,97789.72
2023-04-14T00:28:25.453Z,97793.22
2023-04-14T00:29:27.370Z,97795.41
2023-04-14T00:30:29.956Z,97794.59
2023-04-14T00:31:32.224Z,97796.19
2023-04-14T00:32:34.121Z,97799.97
2023-04-14T00:33:36.085Z,97797.28
2023-04-14T00:34:38.238Z,97791.91
2023-04-14T00:35:40.572Z,97797.59
2023-04-14T00:36:42.534Z,97794.59
2023-04-14T00:37:44.499Z,97799.97
2023-04-14T00:38:46.463Z,97799.47
2023-04-14T00:39:48.659Z,97801.06
2023-04-14T00:40:50.791Z,97807.53
2023-04-14T00:41:52.937Z,97799.78
2023-04-14T00:42:55.084Z,97807.03
2023-04-14T00:43:57.449Z,97809.44
2023-04-14T00:44:59.710Z,97808.63
2023-04-14T00:46:02.632Z,97805.94
2023-04-14T00:47:06.712Z,97806.75
2023-04-14T00:48:09.260Z,97812.13
2023-04-14T00:49:11.345Z,97808.13
2023-04-14T00:50:15.700Z,97812.13
2023-04-14T00:51:17.651Z,97810.53
2023-04-14T00:52:24.308Z,97805.94
2023-04-14T00:53:27.734Z,97806.53
2023-04-14T00:54:31.351Z,97802.75
2023-04-14T00:55:35.274Z,97804.34
2023-04-14T00:56:38.514Z,97810.31
2023-04-14T00:57:42.134Z,97809.22
2023-04-14T00:58:44.685Z,97813.81
2023-04-14T00:59:46.637Z,97807.63
2023-04-14T01:00:54.023Z,97803.06
2023-04-14T01:01:57.344Z,97808.44
2023-04-14T01:03:01.120Z,97803.31
2023-04-14T01:04:04.871Z,97803.63
2023-04-14T01:05:07.350Z,97804.41
2023-04-14T01:06:09.434Z,97806.00
2023-04-14T01:07:12.348Z,97809.78
2023-04-14T01:08:14.967Z,97811.69
2023-04-14T01:09:16.943Z,97814.66
2023-04-14T01:10:19.212Z,97816.56
2023-04-14T01:11:43.872Z,97817.88
2023-04-14T01:13:25.053Z,97822.09
2023-04-14T01:14:48.461Z,97826.97
2023-04-14T01:15:59.582Z,97828.91
2023-04-14T01:17:20.071Z,97829.22
2023-04-14T01:18:30.239Z,97834.09
2023-04-14T01:20:17.598Z,97833.19
2023-04-14T01:21:26.886Z,97830.81
2023-04-14T01:22:36.295Z,97833.00
2023-04-14T01:24:00.243Z,97832.69
2023-04-14T01:25:23.977Z,97836.78
2023-04-14T01:26:33.383Z,97840.06
2023-04-14T01:27:38.909Z,97846.00
2023-04-14T01:29:20.684Z,97845.13
2023-04-14T01:30:42.128Z,97845.13
2023-04-14T01:31:46.950Z,97850.88
2023-04-14T01:32:53.667Z,97849.28
2023-04-14T01:34:06.386Z,97850.28
2023-04-14T01:35:20.910Z,97853.25
2023-04-14T01:36:40.918Z,97850.06
2023-04-14T01:37:55.193Z,97847.38
2023-04-14T01:38:57.887Z,97845.28
2023-04-14T01:40:11.439Z,97855.75
2023-04-14T01:41:16.991Z,97851.97
2023-04-14T01:42:23.903Z,97854.16
2023-04-14T01:43:31.279Z,97858.44
2023-04-14T01:44:35.459Z,97854.16
2023-04-14T01:45:42.272Z,97858.72
2023-04-14T01:46:47.168Z,97856.03
2023-04-14T01:47:50.563Z,97857.13
2023-04-14T01:48:53.425Z,97856.88
2023-04-14T01:49:57.383Z,97859.31
2023-04-14T01:51:02.172Z,97855.81
2023-04-14T01:52:09.084Z,97860.31
2023-04-14T01:53:15.561Z,97853.13
2023-04-14T01:54:20.128Z,97853.13
2023-04-14T01:55:26.464Z,97854.72
2023-04-14T01:56:29.623Z,97857.69
2023-04-14T01:57:35.162Z,97859.00
2023-04-14T01:58:39.020Z,97863.06
2023-04-14T01:59:42.806Z,97859.56
2023-04-14T02:00:46.888Z,97859.31
2023-04-14T02:01:51.302Z,97869.25
2023-04-14T02:02:55.240Z,97869.25
2023-04-14T02:04:00.332Z,97868.97
2023-04-14T02:05:04.331Z,97857.94
2023-04-14T02:06:08.154Z,97872.47
2023-04-14T02:07:12.934Z,97865.22
2023-04-14T02:08:17.953Z,97868.69
2023-04-14T02:09:22.654Z,97860.94
2023-04-14T02:10:26.632Z,97862.53
2023-04-14T02:11:31.038Z,97869.78
2023-04-14T02:12:35.372Z,97859.03
2023-04-14T02:13:41.252Z,97868.69
2023-04-14T02:14:46.735Z,97868.19
2023-04-14T02:15:53.997Z,97866.31
2023-04-14T02:16:59.218Z,97870.88
2023-04-14T02:18:05.793Z,97867.91
2023-04-14T02:19:09.091Z,97873.56
2023-04-14T02:20:13.792Z,97869.78
2023-04-14T02:21:18.725Z,97865.50
2023-04-14T02:22:21.566Z,97865.78
2023-04-14T02:23:24.010Z,97866.31
2023-04-14T02:24:26.815Z,97867.69
2023-04-14T02:25:33.918Z,97867.69
2023-04-14T02:26:41.371Z,97865.50
2023-04-14T02:28:10.099Z,97863.63
2023-04-14T02:29:16.081Z,97863.31
2023-04-14T02:30:30.562Z,97859.03
2023-04-14T02:31:36.626Z,97863.09
2023-04-14T02:32:45.093Z,97867.69
2023-04-14T02:33:49.690Z,97861.00
2023-04-14T02:35:07.213Z,97860.41
2023-04-14T02:36:20.965Z,97860.13
2023-04-14T02:37:31.704Z,97856.44
2023-04-14T02:38:46.954Z,97861.50
2023-04-14T02:39:56.861Z,97860.72
2023-04-14T02:41:04.597Z,97860.22
2023-04-14T02:42:17.074Z,97855.63
2023-04-14T02:43:31.351Z,97856.44
2023-04-14T02:44:39.192Z,97861.31
2023-04-14T02:45:45.551Z,97865.06
2023-04-14T02:47:07.768Z,97866.09
2023-04-14T02:48:14.350Z,97865.88
2023-04-14T02:49:18.009Z,97864.84
2023-04-14T02:50:22.990Z,97863.47
2023-04-14T02:51:27.447Z,97864.03
2023-04-14T02:52:34.470Z,97866.44
2023-04-14T02:53:37.216Z,97869.41
2023-04-14T02:54:42.451Z,97868.31
2023-04-14T02:55:48.013Z,97866.72
2023-04-14T02:56:50.913Z,97868.63
2023-04-14T02:57:55.082Z,97865.13
2023-04-14T02:58:58.276Z,97875.09
2023-04-14T03:00:02.087Z,97871.31
2023-04-14T03:01:05.085Z,97870.78
2023-04-14T03:02:09.318Z,97869.72
2023-04-14T03:03:13.655Z,97874.28
2023-04-14T03:04:16.919Z,97867.81
2023-04-14T03:05:20.723Z,97874.00
2023-04-14T03:06:24.742Z,97874.00
2023-04-14T03:07:28.143Z,97871.31
2023-04-14T03:08:31.180Z,97874.28
2023-04-14T03:09:34.797Z,97868.41
2023-04-14T03:10:37.585Z,97863.03
2023-04-14T03:11:41.944Z,97870.00
2023-04-14T03:12:46.402Z,97872.41
2023-04-14T03:13:52.936Z,97873.78
2023-04-14T03:14:56.199Z,97868.41
2023-04-14T03:15:59.531Z,97873.78
2023-04-14T03:17:02.968Z,97872.97
2023-04-14T03:18:05.940Z,97876.47
2023-04-14T03:19:10.750Z,97872.97
2023-04-14T03:20:14.293Z,97874.06
2023-04-14T03:21:19.560Z,97867.91
2023-04-14T03:22:23.478Z,97861.44
2023-04-14T03:23:27.429Z,97867.06
2023-04-14T03:24:31.911Z,97870.28
2023-04-14T03:25:40.217Z,97866.81
2023-04-14T03:26:45.687Z,97870.59
2023-04-14T03:27:48.895Z,97874.88
2023-04-14T03:28:53.551Z,97870.59
2023-04-14T03:30:01.488Z,97873.53
2023-04-14T03:31:07.315Z,97875.97
2023-04-14T03:32:11.365Z,97874.63
2023-04-14T03:33:18.169Z,97875.13
2023-04-14T03:34:21.280Z,97883.47
2023-04-14T03:35:24.119Z,97874.91
2023-04-14T03:36:27.507Z,97876.50
2023-04-14T03:37:35.443Z,97879.72
2023-04-14T03:38:38.151Z,97873.31
2023-04-14T03:39:42.686Z,97876.50
2023-04-14T03:40:48.059Z,97872.22
2023-04-14T03:41:52.002Z,97877.91
2023-04-14T03:42:54.464Z,97876.31
2023-04-14T03:43:57.592Z,97876.00
2023-04-14T03:45:01.615Z,97873.31
2023-04-14T03:46:06.264Z,97872.81
2023-04-14T03:47:10.593Z,97872.53
2023-04-14T03:48:15.058Z,97870.13
2023-04-14T03:49:18.611Z,97868.53
2023-04-14T03:50:24.453Z,97869.84
2023-04-14T03:51:32.176Z,97871.72
2023-04-14T03:52:38.207Z,97872.31
2023-04-14T03:53:43.173Z,97870.94
2023-04-14T03:54:48.125Z,97878.47
2023-04-14T03:55:55.842Z,97879.28
2023-04-14T03:56:59.147Z,97878.47
2023-04-14T03:58:03.170Z,97868.03
2023-04-14T03:59:09.979Z,97877.69
2023-04-14T04:00:15.284Z,97883.84
2023-04-14T04:01:19.782Z,97885.75
2023-04-14T04:02:23.708Z,97882.81
2023-04-14T04:03:26.987Z,97882.53
2023-04-14T04:04:31.411Z,97882.53
2023-04-14T04:05:41.121Z,97878.47
2023-04-14T04:06:44.047Z,97884.41
2023-04-14T04:07:48.125Z,97878.53
2023-04-14T04:08:52.659Z,97882.31
2023-04-14T04:09:56.695Z,97885.78
2023-04-14T04:11:00.580Z,97886.88
2023-04-14T04:12:05.061Z,97878.81
2023-04-14T04:13:15.770Z,97890.34
2023-04-14T04:14:21.499Z,97879.91
2023-04-14T04:15:24.591Z,97891.75
2023-04-14T04:16:29.537Z,97884.47
2023-04-14T04:17:34.838Z,97881.78
2023-04-14T04:18:39.712Z,97893.34
2023-04-14T04:19:44.531Z,97888.25
2023-04-14T04:20:49.782Z,97888.53
2023-04-14T04:21:57.629Z,97887.75
2023-04-14T04:23:02.881Z,97886.38
2023-04-14T04:24:06.285Z,97879.97
2023-04-14T04:25:11.832Z,97883.97
2023-04-14T04:26:14.694Z,97885.84
2023-04-14T04:27:27.802Z,97889.34
2023-04-14T04:28:31.473Z,97885.84
2023-04-14T04:29:34.112Z,97878.34
2023-04-14T04:30:40.827Z,97884.78
2023-04-14T04:31:43.544Z,97879.97
2023-04-14T04:32:46.200Z,97875.41
2023-04-14T04:33:49.992Z,97885.06
2023-04-14T04:34:55.080Z,97883.47
2023-04-14T04:35:59.757Z,97881.56
2023-04-14T04:37:03.318Z,97883.19
2023-04-14T04:38:05.881Z,97893.41
2023-04-14T04:39:08.255Z,97887.75
2023-04-14T04:40:11.079Z,97893.41
2023-04-14T04:41:30.430Z,97881.78
2023-04-14T04:42:32.727Z,97882.66
2023-04-14T04:43:36.232Z,97885.63
2023-04-14T04:44:38.528Z,97882.94
2023-04-14T04:46:03.392Z,97889.06
2023-04-14T04:47:06.711Z,97888.03
2023-04-14T04:48:09.292Z,97888.59
2023-04-14T04:49:11.643Z,97887.50
2023-04-14T04:50:14.316Z,97889.38
2023-04-14T04:51:18.056Z,97885.91
2023-04-14T04:52:20.840Z,97888.59
2023-04-14T04:53:23.186Z,97886.19
2023-04-14T04:54:27.431Z,97881.63
2023-04-14T04:55:29.894Z,97886.69
2023-04-14T04:56:32.467Z,97896.66
2023-04-14T04:57:34.656Z,97893.16
2023-04-14T04:58:36.957Z,97889.16
2023-04-14T04:59:39.395Z,97892.88
2023-04-14T05:00:43.480Z,97896.66
2023-04-14T05:01:46.142Z,97897.75
2023-04-14T05:02:48.849Z,97892.38
2023-04-14T05:03:51.503Z,97895.84
2023-04-14T05:04:54.050Z,97892.38
2023-04-14T05:05:58.712Z,97895.84
2023-04-14T05:07:01.293Z,97893.97
2023-04-14T05:08:03.810Z,97889.69
2023-04-14T05:09:06.992Z,97891.28
2023-04-14T05:10:09.666Z,97892.88
2023-04-14T05:11:12.176Z,97897.22
2023-04-14T05:12:14.422Z,97891.56
2023-04-14T05:13:16.751Z,97893.44
2023-04-14T05:14:19.062Z,97893.75
2023-04-14T05:15:21.775Z,97895.34
2023-04-14T05:16:24.720Z,97896.13
2023-04-14T05:17:27.336Z,97900.72
2023-04-14T05:18:30.011Z,97901.50
2023-04-14T05:19:32.252Z,97903.41
2023-04-14T05:20:35.130Z,97898.03
2023-04-14T05:21:37.861Z,97899.91
2023-04-14T05:22:40.260Z,97899.91
2023-04-14T05:23:45.263Z,97898.53
2023-04-14T05:24:51.247Z,97905.50
2023-04-14T05:26:07.204Z,97896.66
2023-04-14T05:27:21.963Z,97894.75
2023-04-14T05:28:24.722Z,97901.50
2023-04-14T05:29:27.038Z,97899.13
2023-04-14T05:30:30.058Z,97903.41
2023-04-14T05:31:32.892Z,97899.13
2023-04-14T05:32:35.357Z,97896.72
2023-04-14T05:33:38.935Z,97896.44
2023-04-14T05:34:44.220Z,97902.31
2023-04-14T05:35:47.335Z,97898.31
2023-04-14T05:36:49.928Z,97902.88
2023-04-14T05:37:52.255Z,97903.97
2023-04-14T05:38:54.523Z,97906.66
2023-04-14T05:39:56.792Z,97911.22
2023-04-14T05:40:59.440Z,97906.16
2023-04-14T05:42:01.786Z,97916.59
2023-04-14T05:43:04.643Z,97920.09
2023-04-14T05:44:06.891Z,97920.88
2023-04-14T05:45:10.080Z,97921.69
2023-04-14T05:46:12.410Z,97921.97
2023-04-14T05:47:17.162Z,97924.66
2023-04-14T05:48:19.990Z,97930.84
2023-04-14T05:49:23.143Z,97925.47
2023-04-14T05:50:25.449Z,97924.94
2023-04-14T05:51:28.620Z,97931.91
2023-04-14T05:52:31.317Z,97937.28
2023-04-14T05:53:33.605Z,97936.50
2023-04-14T05:54:35.912Z,97940.78
2023-04-14T05:55:41.089Z,97940.78
2023-04-14T05:56:43.411Z,97934.91
2023-04-14T05:57:46.031Z,97945.63
2023-04-14T05:58:50.164Z,97937.59
2023-04-14T05:59:52.598Z,97943.75
2023-04-14T06:00:55.617Z,97942.13
2023-04-14T06:01:58.396Z,97942.66
2023-04-14T06:03:01.635Z,97937.59
2023-04-14T06:04:04.873Z,97945.09
2023-04-14T06:05:08.720Z,97946.44
2023-04-14T06:06:11.140Z,97944.56
2023-04-14T06:07:13.484Z,97939.19
2023-04-14T06:08:15.797Z,97940.81
2023-04-14T06:09:18.339Z,97948.31
2023-04-14T06:10:20.924Z,97945.09
2023-04-14T06:11:23.770Z,97953.94
2023-04-14T06:12:26.197Z,97945.91
2023-04-14T06:13:31.167Z,97952.88
2023-04-14T06:14:34.364Z,97952.88
2023-04-14T06:15:37.097Z,97944.81
2023-04-14T06:16:39.512Z,97949.94
2023-04-14T06:17:43.155Z,97947.50
2023-04-14T06:18:45.453Z,97954.75
2023-04-14T06:19:49.626Z,97944.31
2023-04-14T06:20:52.533Z,97953.94
2023-04-14T06:21:55.207Z,97947.00
2023-04-14T06:22:57.439Z,97946.19
2023-04-14T06:24:00.101Z,97947.78
2023-04-14T06:25:02.785Z,97957.44
2023-04-14T06:26:05.678Z,97952.88
2023-04-14T06:27:09.483Z,97952.06
2023-04-14T06:28:11.861Z,97953.69
2023-04-14T06:29:16.309Z,97952.06
2023-04-14T06:30:20.249Z,97952.88
2023-04-14T06:31:22.845Z,97953.94
2023-04-14T06:32:25.299Z,97956.63
2023-04-14T06:33:27.783Z,97955.56
2023-04-14T06:34:30.039Z,97953.94
2023-04-14T06:35:33.948Z,97960.13
2023-04-14T06:36:36.583Z,97955.84
2023-04-14T06:37:38.900Z,97957.44
2023-04-14T06:38:41.484Z,97949.13
2023-04-14T06:39:43.882Z,97956.91
2023-04-14T06:40:46.181Z,97949.94
2023-04-14T06:41:48.805Z,97949.13
2023-04-14T06:42:51.129Z,97952.88
2023-04-14T06:43:53.478Z,97947.25
2023-04-14T06:44:56.075Z,97948.31
2023-04-14T06:45:58.689Z,97954.75
2023-04-14T06:47:02.033Z,97946.69
2023-04-14T06:48:05.024Z,97942.97
2023-04-14T06:49:08.422Z,97948.31
2023-04-14T06:50:11.173Z,97942.66
2023-04-14T06:51:14.433Z,97948.84
2023-04-14T06:52:16.762Z,97943.47
2023-04-14T06:53:19.791Z,97949.63
2023-04-14T06:54:22.040Z,97948.03
2023-04-14T06:55:24.717Z,97941.88
2023-04-14T06:56:27.251Z,97943.47
2023-04-14T06:57:29.580Z,97948.31
2023-04-14T06:58:32.314Z,97939.19
2023-04-14T06:59:34.722Z,97934.03
2023-04-14T07:00:37.163Z,97938.38
2023-04-14T07:01:39.407Z,97930.03
2023-04-14T07:02:41.838Z,97937.59
2023-04-14T07:03:48.763Z,97929.22
2023-04-14T07:04:51.638Z,97937.81
2023-04-14T07:05:54.143Z,97937.81
2023-04-14T07:07:01.460Z,97927.56
2023-04-14T07:08:03.888Z,97939.41
2023-04-14T07:09:06.554Z,97935.63
2023-04-14T07:10:09.272Z,97931.34
2023-04-14T07:11:12.526Z,97930.84
2023-04-14T07:12:17.267Z,97935.34
2023-04-14T07:13:20.616Z,97934.84
2023-04-14T07:14:23.393Z,97930.25
2023-04-14T07:15:26.814Z,97933.75
2023-04-14T07:16:29.749Z,97928.66
2023-04-14T07:17:32.097Z,97929.47
2023-04-14T07:18:35.217Z,97927.00
2023-04-14T07:19:37.494Z,97921.41
2023-04-14T07:20:40.054Z,97919.50
2023-04-14T07:21:42.398Z,97920.31
2023-04-14T07:22:45.565Z,97914.44
2023-04-14T07:23:48.296Z,97917.63
2023-04-14T07:24:51.009Z,97912.25
2023-04-14T07:25:58.066Z,97909.56
2023-04-14T07:27:00.419Z,97909.28
2023-04-14T07:28:04.099Z,97910.38
2023-04-14T07:29:06.654Z,97903.09
2023-04-14T07:30:09.575Z,97911.47
2023-04-14T07:31:13.139Z,97919.22
2023-04-14T07:32:16.275Z,97911.16
2023-04-14T07:33:19.904Z,97910.66
2023-04-14T07:34:22.688Z,97914.66
2023-04-14T07:35:28.268Z,97911.41
2023-04-14T07:36:32.898Z,97906.88
2023-04-14T07:37:35.724Z,97909.56
2023-04-14T07:38:38.440Z,97905.28
2023-04-14T07:39:41.419Z,97902.59
2023-04-14T07:40:43.849Z,97903.69
2023-04-14T07:41:46.578Z,97905.78
2023-04-14T07:42:49.146Z,97907.69
2023-04-14T07:43:52.720Z,97908.47
2023-04-14T07:44:55.521Z,97915.75
2023-04-14T07:45:57.880Z,97910.38
2023-04-14T07:47:00.449Z,97904.47
2023-04-14T07:48:03.191Z,97905.28
2023-04-14T07:49:05.809Z,97910.66
2023-04-14T07:50:08.890Z,97916.53
2023-04-14T07:51:12.250Z,97913.56
2023-04-14T07:52:14.801Z,97912.75
2023-04-14T07:53:17.513Z,97914.94
2023-04-14T07:54:19.850Z,97918.13
2023-04-14T07:55:22.117Z,97910.06
2023-04-14T07:56:24.776Z,97921.31
2023-04-14T07:57:27.348Z,97918.13
2023-04-14T07:58:30.026Z,97912.75
2023-04-14T07:59:32.808Z,97915.97
2023-04-14T08:00:35.706Z,97912.47
2023-04-14T08:01:38.301Z,97912.47
2023-04-14T08:02:40.848Z,97919.47
2023-04-14T08:03:45.388Z,97916.78
2023-04-14T08:04:48.156Z,97917.84
2023-04-14T08:05:50.552Z,97913.00
2023-04-14T08:06:52.941Z,97916.78
2023-04-14T08:07:55.575Z,97919.47
2023-04-14T08:08:57.893Z,97920.78
2023-04-14T08:10:00.419Z,97921.06
2023-04-14T08:11:02.731Z,97922.97
2023-04-14T08:12:05.393Z,97915.41
2023-04-14T08:13:07.974Z,97916.22
2023-04-14T08:14:10.622Z,97918.59
2023-04-14T08:15:13.153Z,97921.88
2023-04-14T08:16:15.726Z,97915.41
2023-04-14T08:17:18.415Z,97925.06
2023-04-14T08:18:21.026Z,97923.69
2023-04-14T08:19:23.422Z,97917.50
2023-04-14T08:20:26.390Z,97915.91
2023-04-14T08:21:28.779Z,97917.22
2023-04-14T08:22:31.070Z,97917.50
2023-04-14T08:23:33.942Z,97912.94
2023-04-14T08:24:37.803Z,97919.91
2023-04-14T08:25:41.329Z,97914.25
2023-04-14T08:26:43.971Z,97913.44
2023-04-14T08:27:46.142Z,97914.25
2023-04-14T08:28:48.505Z,97908.88
2023-04-14T08:29:51.698Z,97911.06
2023-04-14T08:30:54.866Z,97915.34
2023-04-14T08:31:57.191Z,97909.41
2023-04-14T08:32:59.707Z,97912.34
2023-04-14T08:34:02.072Z,97911.28
2023-04-14T08:35:38.891Z,97909.41
2023-04-14T08:36:27.784Z,97916.88
2023-04-14T08:37:30.146Z,97909.91
2023-04-14T08:38:32.459Z,97907.22
2023-04-14T08:39:34.741Z,97916.88
2023-04-14T08:40:54.405Z,97913.63
2023-04-14T08:41:58.548Z,97913.13
2023-04-14T08:43:00.840Z,97915.81
2023-04-14T08:44:03.657Z,97907.75
2023-04-14T08:45:06.637Z,97905.84
2023-04-14T08:46:13.701Z,97908.25
2023-04-14T08:47:16.574Z,97904.75
2023-04-14T08:48:21.629Z,97898.81
2023-04-14T08:49:36.492Z,97908.47
2023-04-14T08:50:56.237Z,97900.94
2023-04-14T08:52:02.394Z,97900.41
2023-04-14T08:53:10.161Z,97901.19
2023-04-14T08:54:12.860Z,97901.78
2023-04-14T08:55:17.899Z,97899.91
2023-04-14T08:56:24.522Z,97896.91
2023-04-14T08:57:27.423Z,97888.06
2023-04-14T08:58:30.934Z,97901.19
2023-04-14T08:59:33.801Z,97905.53
2023-04-14T09:00:42.009Z,97900.34
2023-04-14T09:01:46.334Z,97906.03
2023-04-14T09:02:51.409Z,97905.22
2023-04-14T09:03:56.112Z,97904.94
2023-04-14T09:05:00.697Z,97904.13
2023-04-14T09:06:04.995Z,97903.03
2023-04-14T09:07:08.069Z,97901.44
2023-04-14T09:08:11.735Z,97895.50
2023-04-14T09:09:16.263Z,97891.22
2023-04-14T09:10:18.778Z,97896.06
2023-04-14T09:11:22.496Z,97898.47
2023-04-14T09:12:28.429Z,97899.78
2023-04-14T09:13:31.628Z,97902.47
2023-04-14T09:14:35.301Z,97893.31
2023-04-14T09:15:38.608Z,97900.28
2023-04-14T09:16:41.314Z,97904.84
2023-04-14T09:17:45.225Z,97900.28
2023-04-14T09:18:48.820Z,97901.06
2023-04-14T09:20:34.831Z,97896.25
2023-04-14T09:21:31.774Z,97898.34
2023-04-14T09:22:44.017Z,97892.47
2023-04-14T09:23:47.193Z,97887.38
2023-04-14T09:24:51.651Z,97888.97
2023-04-14T09:25:56.895Z,97886.28
2023-04-14T09:27:01.713Z,97889.78
2023-04-14T09:28:05.911Z,97890.28
2023-04-14T09:29:08.404Z,97892.75
2023-04-14T09:30:11.493Z,97892.47
2023-04-14T09:31:14.170Z,97887.38
2023-04-14T09:32:23.399Z,97884.69
2023-04-14T09:33:26.413Z,97890.28
2023-04-14T09:34:29.168Z,97889.47
2023-04-14T09:35:51.574Z,97889.13
2023-04-14T09:37:07.941Z,97885.63
2023-04-14T09:38:10.211Z,97890.28
2023-04-14T09:39:18.530Z,97896.97
2023-04-14T09:40:32.998Z,97890.19
2023-04-14T09:41:35.669Z,97891.38
2023-04-14T09:42:42.983Z,97891.59
2023-04-14T09:43:48.470Z,97891.38
2023-04-14T09:44:54.787Z,97901.53
2023-04-14T09:46:03.904Z,97901.03
2023-04-14T09:47:07.462Z,97898.06
2023-04-14T09:48:13.322Z,97896.44
2023-04-14T09:49:15.215Z,97894.06
2023-04-14T09:50:17.181Z,97896.97
2023-04-14T09:51:24.540Z,97890.19
2023-04-14T09:52:39.868Z,97896.16
2023-04-14T09:53:42.481Z,97892.88
2023-04-14T09:54:46.092Z,97892.38
2023-04-14T09:55:51.548Z,97891.00
2023-04-14T09:56:55.145Z,97885.13
2023-04-14T09:57:57.274Z,97884.03
2023-04-14T09:59:02.355Z,97888.06
2023-04-14T10:00:22.540Z,97890.69
2023-04-14T10:01:34.272Z,97888.28
2023-04-14T10:03:01.717Z,97878.25
2023-04-14T10:04:04.490Z,97885.91
2023-04-14T10:05:07.096Z,97884.00
2023-04-14T10:06:17.540Z,97882.91
2023-04-14T10:07:20.150Z,97883.22
2023-04-14T10:08:22.170Z,97880.53
2023-04-14T10:09:29.970Z,97889.09
2023-04-14T10:10:32.757Z,97879.13
2023-04-14T10:11:36.500Z,97875.94
2023-04-14T10:12:41.896Z,97875.34
2023-04-14T10:13:46.314Z,97878.03
2023-04-14T10:14:50.129Z,97874.56
2023-04-14T10:15:52.346Z,97875.34
2023-04-14T10:16:54.332Z,97879.63
2023-04-14T10:17:56.826Z,97873.97
2023-04-14T10:18:59.666Z,97873.97
2023-04-14T10:20:02.319Z,97865.59
2023-04-14T10:21:06.603Z,97858.44
2023-04-14T10:22:09.372Z,97878.25
2023-04-14T10:23:11.471Z,97873.41
2023-04-14T10:24:14.573Z,97866.41
2023-04-14T10:25:18.320Z,97867.44
2023-04-14T10:26:21.847Z,97867.44
2023-04-14T10:27:26.182Z,97861.56
2023-04-14T10:28:33.032Z,97859.09
2023-04-14T10:29:36.778Z,97858.28
2023-04-14T10:30:41.149Z,97852.59
2023-04-14T10:31:49.982Z,97861.97
2023-04-14T10:32:52.234Z,97850.22
2023-04-14T10:33:55.322Z,97861.19
2023-04-14T10:35:11.806Z,97857.34
2023-04-14T10:36:28.206Z,97850.88
2023-04-14T10:37:30.677Z,97841.78
2023-04-14T10:38:44.084Z,97847.09
2023-04-14T10:39:58.703Z,97839.00
2023-04-14T10:41:04.183Z,97831.84
2023-04-14T10:42:06.323Z,97835.59
2023-04-14T10:43:16.185Z,97840.13
2023-04-14T10:44:28.794Z,97837.13
2023-04-14T10:45:30.918Z,97838.22
2023-04-14T10:46:46.678Z,97828.75
2023-04-14T10:47:51.246Z,97833.63
2023-04-14T10:48:53.740Z,97827.47
2023-04-14T10:49:58.115Z,97834.44
2023-04-14T10:51:02.663Z,97827.66
2023-04-14T10:52:06.345Z,97828.75
2023-04-14T10:53:10.144Z,97833.03
2023-04-14T10:54:19.387Z,97823.63
2023-04-14T10:55:28.272Z,97819.84
2023-04-14T10:56:31.570Z,97824.69
2023-04-14T10:57:41.034Z,97818.94
2023-04-14T10:58:59.069Z,97816.75
2023-04-14T11:00:01.247Z,97814.97
2023-04-14T11:01:32.413Z,97815.88
2023-04-14T11:02:38.068Z,97812.16
2023-04-14T11:03:46.355Z,97806.00
2023-04-14T11:05:12.087Z,97809.13
2023-04-14T11:06:13.993Z,97806.78
2023-04-14T11:07:21.979Z,97807.59
2023-04-14T11:08:35.991Z,97806.50
2023-04-14T11:09:37.905Z,97803.31
2023-04-14T11:10:42.137Z,97803.81
2023-04-14T11:11:44.253Z,97799.53
2023-04-14T11:12:48.676Z,97794.44
2023-04-14T11:14:11.792Z,97794.56
2023-04-14T11:15:16.235Z,97789.78
2023-04-14T11:16:29.155Z,97788.38
2023-04-14T11:17:33.370Z,97794.38
2023-04-14T11:18:46.222Z,97787.91
2023-04-14T11:19:49.003Z,97784.72
2023-04-14T11:20:53.496Z,97786.50
2023-04-14T11:21:55.872Z,97790.28
2023-04-14T11:22:58.826Z,97797.25
2023-04-14T11:24:02.398Z,97790.00
2023-04-14T11:25:05.199Z,97791.88
2023-04-14T11:26:10.566Z,97782.13
2023-04-14T11:27:13.958Z,97780.22
2023-04-14T11:28:26.468Z,97786.41
2023-04-14T11:29:28.393Z,97786.94
2023-04-14T11:30:30.346Z,97783.44
2023-04-14T11:31:32.448Z,97783.94
2023-04-14T11:32:53.996Z,97787.06
2023-04-14T11:33:57.567Z,97775.88
2023-04-14T11:35:09.884Z,97778.44
2023-04-14T11:36:13.087Z,97781.25
2023-04-14T11:37:15.537Z,97775.25
2023-04-14T11:38:17.678Z,97776.38
2023-04-14T11:39:19.764Z,97776.38
2023-04-14T11:40:23.218Z,97779.06
2023-04-14T11:41:26.398Z,97786.81
2023-04-14T11:42:28.398Z,97779.34
2023-04-14T11:43:30.758Z,97776.38
2023-04-14T11:44:33.111Z,97777.47
2023-04-14T11:45:35.464Z,97782.25
2023-04-14T11:46:41.284Z,97781.13
2023-04-14T11:48:06.218Z,97781.59
2023-04-14T11:49:09.622Z,97771.97
2023-04-14T11:50:14.596Z,97766.59
2023-04-14T11:51:19.175Z,97769.28
2023-04-14T11:52:22.243Z,97769.59
2023-04-14T11:53:24.636Z,97771.97
2023-04-14T11:54:39.323Z,97761.97
2023-04-14T11:55:48.323Z,97773.03
2023-04-14T11:56:50.998Z,97760.16
2023-04-14T11:57:54.651Z,97755.56
2023-04-14T11:59:06.879Z,97767.84
2023-04-14T12:00:13.666Z,97757.38
2023-04-14T12:01:29.834Z,97768.16
2023-04-14T12:02:32.284Z,97769.25
2023-04-14T12:03:40.224Z,97765.75
2023-04-14T12:04:53.711Z,97766.84
2023-04-14T12:06:03.497Z,97756.47
2023-04-14T12:07:15.542Z,97758.38
2023-04-14T12:08:17.410Z,97764.84
2023-04-14T12:09:19.462Z,97760.56
2023-04-14T12:10:22.549Z,97758.97
2023-04-14T12:11:25.618Z,97757.56
2023-04-14T12:12:33.591Z,97764.25
2023-04-14T12:13:42.100Z,97754.53
2023-04-14T12:14:49.953Z,97754.09
2023-04-14T12:15:52.925Z,97754.88
2023-04-14T12:16:55.340Z,97752.69
2023-04-14T12:17:58.362Z,97753.47
2023-04-14T12:19:00.763Z,97745.94
2023-04-14T12:20:04.264Z,97741.34
2023-04-14T12:21:09.705Z,97739.75
2023-04-14T12:22:13.922Z,97734.88
2023-04-14T12:23:16.416Z,97739.94
2023-04-14T12:24:18.819Z,97738.34
2023-04-14T12:25:20.754Z,97738.66
2023-04-14T12:26:25.997Z,97729.47
2023-04-14T12:27:28.542Z,97727.59
2023-04-14T12:28:30.885Z,97723.81
2023-04-14T12:29:34.773Z,97720.50
2023-04-14T12:30:37.829Z,97719.41
2023-04-14T12:31:46.829Z,97711.34
2023-04-14T12:32:49.828Z,97717.00
2023-04-14T12:33:53.793Z,97715.91
2023-04-14T12:34:59.288Z,97718.03
2023-04-14T12:36:06.774Z,97711.81
2023-04-14T12:37:11.764Z,97713.44
2023-04-14T12:38:14.932Z,97712.66
2023-04-14T12:39:16.983Z,97708.34
2023-04-14T12:40:38.085Z,97713.03
2023-04-14T12:41:40.254Z,97708.06
2023-04-14T12:42:50.768Z,97708.56
2023-04-14T12:43:52.634Z,97709.13
2023-04-14T12:45:02.308Z,97704.28